KVGT/VGT METAR and TAF weather

Enter ICAO airport designator
Station Type Date Time Source
KVGT METAR 2022/12/08 12:53 UTC NOAA

KVGT 081253Z AUTO 33008KT 10SM CLR 03/M03 A3028 RMK AO2 SLP275 T00281028


Station Type Date Time Source
KVGT Decoded METAR 2022/12/08 12:53 UTC NOAA

NORTH LAS VEGAS, NV, United States (KVGT) 36-12N 115-11W
Dec 08, 2022 - 07:53 AM EST / 2022.12.08 1253 UTC
Wind: from the NNW (330 degrees) at 9 MPH (8 KT):0
Visibility: 10 mile(s):0
Sky conditions: clear
Temperature: 37.0 F (2.8 C)
Dew Point: 27.0 F (-2.8 C)
Relative Humidity: 66%
Pressure (altimeter): 30.28 in. Hg (1025 hPa)
ob: KVGT 081253Z AUTO 33008KT 10SM CLR 03/M03 A3028 RMK AO2 SLP275 T00281028
cycle: 13

Station Type Date Time Source
KVGT TAF 2022/12/08 12:27 UTC NOAA

TAF KVGT 081124Z 0812/0912 33007KT P6SM SKC
FM081900 14006KT P6SM FEW250
FM090400 VRB06KT P6SM BKN250
FM091100 33006KT P6SM BKN250

Example: see airport list